Time;durP1;ratioP1;P1;durP2;ratioP2;P2;SDS_P1;SDS_P2;PMS_P1;PMS_P2;Temp;Humidity;BMP_temperature;BMP_pressure;BME280_temperature;BME280_humidity;BME280_pressure;Samples;Min_cycle;Max_cycle;Signal;HPM_P1;HPM_P2
2022/05/27 00:00:55;;;;;;;;;;;14.70;99.90;;;;;;5016499;28;20372;-79
2022/05/27 00:03:22;;;;;;;;;;;14.70;99.90;;;;;;5016399;28;19952;-78
2022/05/27 00:05:50;;;;;;;;;;;14.70;99.90;;;;;;5016297;28;20009;-79
2022/05/27 00:08:17;;;;;;;;;;;14.70;99.90;;;;;;5016103;28;19916;-79
2022/05/27 00:10:43;;;;;;;;;;;14.70;99.90;;;;;;5016586;28;19910;-78
2022/05/27 00:13:10;;;;;;;;;;;14.70;99.90;;;;;;5016204;28;19910;-78
2022/05/27 00:15:37;;;;;;;;;;;14.80;99.90;;;;;;5015961;28;20257;-78
2022/05/27 00:18:03;;;;;;;;;;;14.90;99.90;;;;;;5016184;28;19909;-79
2022/05/27 00:20:30;;;;;;;;;;;15.00;99.90;;;;;;5016182;28;19909;-80
2022/05/27 00:22:57;;;;;;;;;;;15.20;99.90;;;;;;5015982;28;20312;-78
2022/05/27 00:25:23;;;;;;;;;;;15.10;99.90;;;;;;5015742;28;19910;-79
2022/05/27 00:27:50;;;;;;;;;;;15.10;99.90;;;;;;5015720;28;20324;-79
2022/05/27 00:30:17;;;;;;;;;;;15.20;99.90;;;;;;5015842;28;20372;-79
2022/05/27 00:32:43;;;;;;;;;;;15.20;99.90;;;;;;5015815;28;19909;-80
2022/05/27 00:35:10;;;;;;;;;;;15.20;99.90;;;;;;5015685;28;19964;-79
2022/05/27 00:37:37;;;;;;;;;;;15.20;99.90;;;;;;5015476;28;19910;-77
2022/05/27 00:40:04;;;;;;;;;;;15.30;99.90;;;;;;5015538;28;20000;-77
2022/05/27 00:42:31;;;;;;;;;;;15.40;99.90;;;;;;5015463;28;19910;-77
2022/05/27 00:44:58;;;;;;;;;;;15.50;99.90;;;;;;5015448;28;19910;-78
2022/05/27 00:47:25;;;;;;;;;;;15.50;99.90;;;;;;5015413;28;19910;-78
2022/05/27 00:49:54;;;;;;;;;;;15.60;99.90;;;;;;5015247;28;19964;-79
2022/05/27 00:52:22;;;;;;;;;;;15.70;99.90;;;;;;5014004;28;19926;-79
2022/05/27 00:54:49;;;;;;;;;;;15.70;99.90;;;;;;5015262;28;20422;-76
2022/05/27 00:57:22;;;;;;;;;;;15.90;99.90;;;;;;5015219;28;20361;-79
2022/05/27 00:59:59;;;;;;;;;;;16.00;99.90;;;;;;5014316;28;21422;-76
2022/05/27 01:02:26;;;;;;;;;;;16.10;99.90;;;;;;5015457;28;19956;-76
2022/05/27 01:04:53;;;;;;;;;;;16.40;99.90;;;;;;5015231;28;20005;-78
2022/05/27 01:07:19;;;;;;;;;;;16.50;99.90;;;;;;5015038;28;20356;-76
2022/05/27 01:09:48;;;;;;;;;;;16.80;99.90;;;;;;5014712;28;19909;-77
2022/05/27 01:12:26;;;;;;;;;;;17.00;99.90;;;;;;5014969;28;20000;-76
2022/05/27 01:15:11;;;;;;;;;;;17.20;99.90;;;;;;5014938;28;19920;-76
2022/05/27 01:17:38;;;;;;;;;;;17.30;99.90;;;;;;5014493;28;19925;-79
2022/05/27 01:20:19;;;;;;;;;;;17.40;99.90;;;;;;5014792;28;19917;-78
2022/05/27 01:22:46;;;;;;;;;;;17.30;99.90;;;;;;5014626;28;19953;-79
2022/05/27 01:25:25;;;;;;;;;;;17.40;99.90;;;;;;5014531;28;19948;-76
2022/05/27 01:28:00;;;;;;;;;;;17.30;99.90;;;;;;5014440;28;19995;-78
2022/05/27 01:30:26;;;;;;;;;;;17.30;99.90;;;;;;5014525;28;19913;-80
2022/05/27 01:32:53;;;;;;;;;;;17.30;99.90;;;;;;5014812;28;20020;-78
2022/05/27 01:35:38;;;;;;;;;;;17.40;99.90;;;;;;5014350;28;19928;-76
2022/05/27 01:38:17;;;;;;;;;;;17.30;99.90;;;;;;5014540;28;19921;-78
2022/05/27 01:40:48;;;;;;;;;;;17.40;99.90;;;;;;5014795;28;19940;-77
2022/05/27 01:43:21;;;;;;;;;;;17.40;99.90;;;;;;5014566;28;19916;-77
2022/05/27 01:45:56;;;;;;;;;;;17.50;99.90;;;;;;5014146;28;19909;-77
2022/05/27 01:48:27;;;;;;;;;;;17.50;99.90;;;;;;5014381;28;19917;-78
2022/05/27 01:51:13;;;;;;;;;;;17.60;99.90;;;;;;5014167;28;20013;-79
2022/05/27 01:53:45;;;;;;;;;;;17.60;99.90;;;;;;5013864;28;19917;-78
2022/05/27 01:56:19;;;;;;;;;;;17.60;99.90;;;;;;5014100;28;19939;-78
2022/05/27 01:58:48;;;;;;;;;;;17.80;99.90;;;;;;5014315;28;19915;-79
2022/05/27 02:01:17;;;;;;;;;;;17.70;99.90;;;;;;5011238;28;19913;-79
2022/05/27 02:03:47;;;;;;;;;;;17.70;99.90;;;;;;5003564;28;19914;-78
2022/05/27 02:06:20;;;;;;;;;;;17.70;99.90;;;;;;4993743;28;19910;-79
2022/05/27 02:09:12;;;;;;;;;;;17.80;99.90;;;;;;4993538;28;19910;-77
2022/05/27 02:11:42;;;;;;;;;;;17.80;99.90;;;;;;5000598;28;19945;-79
2022/05/27 02:14:11;;;;;;;;;;;17.90;99.90;;;;;;5014168;28;19913;-78
2022/05/27 02:16:41;;;;;;;;;;;18.00;99.90;;;;;;5014826;28;19917;-78
2022/05/27 02:19:26;;;;;;;;;;;17.90;99.90;;;;;;5013994;28;19956;-78
2022/05/27 02:22:00;;;;;;;;;;;17.90;99.90;;;;;;5013585;28;19916;-78
2022/05/27 02:24:39;;;;;;;;;;;17.90;99.90;;;;;;5013738;28;20369;-80
2022/05/27 02:27:12;;;;;;;;;;;17.90;99.90;;;;;;5013954;28;19925;-79
2022/05/27 02:29:42;;;;;;;;;;;18.00;99.90;;;;;;5013736;28;19914;-79
2022/05/27 02:32:19;;;;;;;;;;;18.10;99.90;;;;;;5014178;28;20408;-78
2022/05/27 02:35:07;;;;;;;;;;;18.10;99.90;;;;;;5013672;28;19910;-79
2022/05/27 02:37:36;;;;;;;;;;;18.00;99.90;;;;;;5013340;28;19926;-78
2022/05/27 02:40:11;;;;;;;;;;;17.90;99.90;;;;;;5013780;28;20371;-78
2022/05/27 02:42:38;;;;;;;;;;;18.00;99.90;;;;;;5013869;28;19909;-79
2022/05/27 02:45:13;;;;;;;;;;;18.10;99.90;;;;;;5013631;28;20008;-75
2022/05/27 02:47:52;;;;;;;;;;;18.10;99.90;;;;;;5013522;28;19917;-79
2022/05/27 02:50:26;;;;;;;;;;;18.00;99.90;;;;;;5013733;28;20361;-78
2022/05/27 02:53:16;;;;;;;;;;;18.20;99.90;;;;;;5013400;28;19975;-79
2022/05/27 02:55:59;;;;;;;;;;;18.20;99.90;;;;;;5007879;28;19914;-79
2022/05/27 02:58:25;;;;;;;;;;;18.10;99.90;;;;;;5013371;28;19909;-76
2022/05/27 03:00:52;;;;;;;;;;;18.00;99.90;;;;;;5013531;28;20008;-77
2022/05/27 03:03:19;;;;;;;;;;;18.10;99.90;;;;;;5013193;28;19949;-77
2022/05/27 03:06:02;;;;;;;;;;;18.10;99.90;;;;;;5013276;28;19909;-77
2022/05/27 03:09:04;;;;;;;;;;;18.20;99.90;;;;;;5013148;28;20039;-76
2022/05/27 03:11:42;;;;;;;;;;;18.50;99.90;;;;;;4971571;28;19945;-75
2022/05/27 03:14:17;;;;;;;;;;;18.60;99.90;;;;;;5012071;28;19913;-76
2022/05/27 03:16:46;;;;;;;;;;;18.50;99.90;;;;;;5017130;28;19917;-75
2022/05/27 03:19:24;;;;;;;;;;;18.50;99.90;;;;;;5017033;28;19909;-78
2022/05/27 03:22:09;;;;;;;;;;;18.50;99.90;;;;;;5016706;28;19916;-76
2022/05/27 03:24:45;;;;;;;;;;;18.40;99.90;;;;;;5017023;28;19909;-74
2022/05/27 03:27:21;;;;;;;;;;;18.50;99.90;;;;;;5017049;28;19910;-77
2022/05/27 03:29:53;;;;;;;;;;;18.60;99.90;;;;;;5016787;28;19909;-75
2022/05/27 03:32:37;;;;;;;;;;;18.70;99.90;;;;;;5016803;28;20356;-77
2022/05/27 03:35:10;;;;;;;;;;;18.80;99.90;;;;;;5016765;28;19963;-77
2022/05/27 03:37:36;;;;;;;;;;;18.80;99.90;;;;;;5016144;28;19920;-75
2022/05/27 03:40:21;;;;;;;;;;;18.90;99.90;;;;;;5015887;28;20607;-78
2022/05/27 03:42:48;;;;;;;;;;;18.80;99.90;;;;;;5048206;28;19917;-77
2022/05/27 03:45:16;;;;;;;;;;;18.80;99.90;;;;;;5016609;28;19916;-76
2022/05/27 03:47:44;;;;;;;;;;;18.90;99.90;;;;;;5016340;28;20378;-76
2022/05/27 03:50:11;;;;;;;;;;;18.90;99.90;;;;;;5016610;28;19909;-79
2022/05/27 03:52:40;;;;;;;;;;;18.90;99.90;;;;;;5016227;28;19928;-75
2022/05/27 03:55:07;;;;;;;;;;;18.90;99.90;;;;;;5016436;28;19924;-77
2022/05/27 03:57:34;;;;;;;;;;;18.80;99.90;;;;;;5016295;28;19992;-79
2022/05/27 04:00:01;;;;;;;;;;;18.90;99.90;;;;;;5016110;28;20284;-75
2022/05/27 04:02:27;;;;;;;;;;;19.00;99.90;;;;;;5016251;28;19910;-75
2022/05/27 04:04:54;;;;;;;;;;;18.90;99.90;;;;;;5016267;28;20233;-75
2022/05/27 04:07:21;;;;;;;;;;;18.90;99.90;;;;;;5016038;28;20349;-76
2022/05/27 04:09:48;;;;;;;;;;;18.90;99.90;;;;;;5015960;28;19959;-74
2022/05/27 04:12:14;;;;;;;;;;;18.90;99.90;;;;;;5016060;28;19909;-74
2022/05/27 04:14:41;;;;;;;;;;;18.90;99.90;;;;;;5015914;28;19910;-74
2022/05/27 04:19:52;;;;;;;;;;;18.90;99.90;;;;;;5015869;28;20048;-74
2022/05/27 04:22:19;;;;;;;;;;;18.90;99.90;;;;;;5015851;28;19928;-76
2022/05/27 04:24:46;;;;;;;;;;;18.90;99.90;;;;;;5015455;28;19954;-76
2022/05/27 04:27:17;;;;;;;;;;;18.90;99.90;;;;;;5014565;28;19910;-75
2022/05/27 04:29:45;;;;;;;;;;;19.00;99.90;;;;;;5015679;28;19910;-79
2022/05/27 04:32:13;;;;;;;;;;;19.00;99.90;;;;;;5015571;28;19960;-78
2022/05/27 04:34:40;;;;;;;;;;;19.00;99.90;;;;;;5015491;28;19918;-78
2022/05/27 04:37:08;;;;;;;;;;;19.00;99.90;;;;;;5015486;28;19913;-75
2022/05/27 04:39:34;;;;;;;;;;;19.00;99.90;;;;;;5015505;28;19933;-75
2022/05/27 04:42:01;;;;;;;;;;;19.00;99.90;;;;;;5015623;28;19951;-78
2022/05/27 04:44:28;;;;;;;;;;;19.00;99.90;;;;;;5015647;28;19909;-78
2022/05/27 04:46:54;;;;;;;;;;;19.00;99.90;;;;;;5015504;28;20008;-75
2022/05/27 04:52:06;;;;;;;;;;;19.00;99.90;;;;;;5015126;28;19965;-77
2022/05/27 04:54:32;;;;;;;;;;;18.90;99.90;;;;;;5015382;28;19916;-78
2022/05/27 04:57:00;;;;;;;;;;;19.00;99.90;;;;;;5015226;28;19921;-78
2022/05/27 04:59:26;;;;;;;;;;;19.00;99.90;;;;;;5015240;28;19955;-78
2022/05/27 05:01:53;;;;;;;;;;;19.00;99.90;;;;;;5014843;28;19920;-75
2022/05/27 05:04:20;;;;;;;;;;;19.00;99.90;;;;;;5046869;28;20300;-74
2022/05/27 05:06:47;;;;;;;;;;;18.90;99.90;;;;;;5015040;28;19917;-74
2022/05/27 05:09:13;;;;;;;;;;;18.80;99.90;;;;;;5014906;28;19917;-75
2022/05/27 05:11:40;;;;;;;;;;;18.90;99.90;;;;;;5014269;28;19913;-74
2022/05/27 05:14:06;;;;;;;;;;;18.90;99.90;;;;;;5013601;28;19917;-74
2022/05/27 05:16:33;;;;;;;;;;;18.80;99.90;;;;;;5014595;28;20365;-74
2022/05/27 05:19:00;;;;;;;;;;;18.80;99.90;;;;;;5014854;28;19910;-75
2022/05/27 05:21:26;;;;;;;;;;;18.80;99.90;;;;;;5014601;28;19917;-74
2022/05/27 05:23:54;;;;;;;;;;;18.70;99.90;;;;;;5014235;28;20016;-75
2022/05/27 05:26:20;;;;;;;;;;;18.70;99.90;;;;;;5014721;28;19941;-74
2022/05/27 05:28:47;;;;;;;;;;;18.60;99.90;;;;;;5014720;28;19964;-75
2022/05/27 05:31:16;;;;;;;;;;;18.50;99.90;;;;;;5014518;28;19913;-74
2022/05/27 05:33:43;;;;;;;;;;;18.50;99.90;;;;;;5014061;28;19909;-74
2022/05/27 05:36:10;;;;;;;;;;;18.50;99.90;;;;;;5013651;28;19944;-74
2022/05/27 05:38:37;;;;;;;;;;;18.50;99.90;;;;;;5014356;28;19999;-74
2022/05/27 05:41:04;;;;;;;;;;;18.60;99.90;;;;;;5014490;28;19909;-73
2022/05/27 05:43:31;;;;;;;;;;;18.60;99.90;;;;;;5014054;28;19909;-76
2022/05/27 05:45:58;;;;;;;;;;;18.60;99.90;;;;;;5014347;28;19910;-75
2022/05/27 05:48:25;;;;;;;;;;;18.50;99.90;;;;;;5014205;28;19909;-75
2022/05/27 05:50:51;;;;;;;;;;;18.40;99.90;;;;;;5013934;28;19936;-77
2022/05/27 05:53:21;;;;;;;;;;;18.30;99.90;;;;;;5013762;28;19928;-75
2022/05/27 05:55:48;;;;;;;;;;;18.30;99.90;;;;;;5013806;28;20432;-75
2022/05/27 05:58:15;;;;;;;;;;;18.30;99.90;;;;;;5014001;28;19909;-76
2022/05/27 06:00:42;;;;;;;;;;;18.30;99.90;;;;;;5014037;28;20377;-75
2022/05/27 06:03:10;;;;;;;;;;;18.20;99.90;;;;;;5014099;28;19909;-74
2022/05/27 06:05:40;;;;;;;;;;;18.20;99.90;;;;;;5013841;28;19910;-74
2022/05/27 06:08:07;;;;;;;;;;;18.10;99.90;;;;;;5013785;28;19910;-75
2022/05/27 06:10:33;;;;;;;;;;;18.20;99.90;;;;;;5013746;28;19941;-75
2022/05/27 06:13:00;;;;;;;;;;;18.20;99.90;;;;;;5013809;28;20391;-75
2022/05/27 06:15:27;;;;;;;;;;;18.10;99.90;;;;;;5013855;28;19921;-77
2022/05/27 06:17:53;;;;;;;;;;;18.20;99.90;;;;;;5013849;28;19950;-75
2022/05/27 06:20:20;;;;;;;;;;;18.10;99.90;;;;;;5013731;28;19913;-75
2022/05/27 06:22:47;;;;;;;;;;;18.20;99.90;;;;;;5013569;28;19988;-75
2022/05/27 06:25:14;;;;;;;;;;;18.10;99.90;;;;;;5013634;28;19917;-74
2022/05/27 06:27:40;;;;;;;;;;;18.00;99.90;;;;;;5013542;28;19917;-74
2022/05/27 06:35:25;;;;;;;;;;;17.90;99.90;;;;;;5013598;28;19922;-76
2022/05/27 06:37:52;;;;;;;;;;;17.80;99.90;;;;;;5013264;28;19910;-75
2022/05/27 06:40:18;;;;;;;;;;;17.80;99.90;;;;;;5013651;28;20004;-76
2022/05/27 06:42:45;;;;;;;;;;;17.80;99.90;;;;;;5013586;28;20319;-77
2022/05/27 06:45:13;;;;;;;;;;;17.80;99.90;;;;;;5013476;28;20008;-75
2022/05/27 06:47:40;;;;;;;;;;;17.80;99.90;;;;;;5013172;28;19914;-77
2022/05/27 06:50:07;;;;;;;;;;;17.70;99.90;;;;;;5013483;28;20356;-77
2022/05/27 06:52:34;;;;;;;;;;;17.70;99.90;;;;;;5010607;28;19996;-78
2022/05/27 06:55:00;;;;;;;;;;;17.70;99.90;;;;;;5011353;28;19917;-78
2022/05/27 06:57:30;;;;;;;;;;;17.60;99.90;;;;;;5011355;28;19979;-79
2022/05/27 06:59:57;;;;;;;;;;;17.60;99.90;;;;;;5011095;28;19913;-78
2022/05/27 07:02:24;;;;;;;;;;;17.50;99.90;;;;;;5011253;28;20331;-79
2022/05/27 07:04:51;;;;;;;;;;;17.40;99.90;;;;;;5010892;28;19921;-78
2022/05/27 07:07:18;;;;;;;;;;;17.40;99.90;;;;;;5011157;28;20324;-79
2022/05/27 07:09:45;;;;;;;;;;;17.30;99.90;;;;;;5010989;28;19920;-78
2022/05/27 07:12:12;;;;;;;;;;;17.30;99.90;;;;;;5011079;28;20102;-75
2022/05/27 07:14:39;;;;;;;;;;;17.30;99.90;;;;;;5011013;28;19910;-75
2022/05/27 07:17:06;;;;;;;;;;;17.20;99.90;;;;;;5010384;28;19947;-77
2022/05/27 07:19:32;;;;;;;;;;;17.20;99.90;;;;;;5010870;28;20379;-78
2022/05/27 07:21:59;;;;;;;;;;;17.20;99.90;;;;;;5010959;28;19913;-79
2022/05/27 07:24:26;;;;;;;;;;;17.20;99.90;;;;;;5011517;28;19916;-80
2022/05/27 07:26:52;;;;;;;;;;;17.10;99.90;;;;;;5010977;28;19909;-77
2022/05/27 07:29:19;;;;;;;;;;;17.10;99.90;;;;;;5011075;28;19919;-78
2022/05/27 07:31:46;;;;;;;;;;;17.10;99.90;;;;;;5010634;28;19940;-79
2022/05/27 07:34:13;;;;;;;;;;;17.10;99.90;;;;;;5010910;28;19988;-79
2022/05/27 07:36:39;;;;;;;;;;;17.10;99.90;;;;;;5009655;28;19925;-80
2022/05/27 07:39:06;;;;;;;;;;;17.10;99.90;;;;;;5011034;28;19913;-79
2022/05/27 07:41:33;;;;;;;;;;;17.00;99.90;;;;;;5010716;28;19916;-77
2022/05/27 07:44:01;;;;;;;;;;;17.00;99.90;;;;;;5010600;28;19909;-78
2022/05/27 07:46:29;;;;;;;;;;;16.90;99.90;;;;;;5011036;28;20335;-80
2022/05/27 07:48:55;;;;;;;;;;;16.80;99.90;;;;;;5010987;28;19909;-78
2022/05/27 07:51:22;;;;;;;;;;;16.70;99.90;;;;;;5010596;28;19918;-79
2022/05/27 07:53:49;;;;;;;;;;;16.70;99.90;;;;;;5010578;28;19922;-77
2022/05/27 07:56:15;;;;;;;;;;;16.70;99.90;;;;;;5010446;28;19921;-76
2022/05/27 07:58:42;;;;;;;;;;;16.70;99.90;;;;;;5012133;28;19974;-78
2022/05/27 08:01:09;;;;;;;;;;;16.70;99.90;;;;;;5014259;28;19913;-76
2022/05/27 08:03:36;;;;;;;;;;;16.70;99.90;;;;;;5013909;28;19951;-79
2022/05/27 08:06:03;;;;;;;;;;;16.70;99.90;;;;;;5013828;28;19909;-79
2022/05/27 08:08:29;;;;;;;;;;;16.70;99.90;;;;;;5045858;28;20300;-79
2022/05/27 08:10:56;;;;;;;;;;;16.70;99.90;;;;;;5045392;28;19910;-78
2022/05/27 08:13:23;;;;;;;;;;;16.70;99.90;;;;;;5013935;28;19935;-78
2022/05/27 08:15:52;;;;;;;;;;;16.60;99.90;;;;;;5013701;28;19928;-77
2022/05/27 08:18:19;;;;;;;;;;;16.60;99.90;;;;;;5013815;28;20325;-77
2022/05/27 08:20:46;;;;;;;;;;;16.50;99.90;;;;;;5013541;28;19968;-80
2022/05/27 08:23:16;;;;;;;;;;;16.50;99.90;;;;;;5013247;28;19921;-76
2022/05/27 08:25:43;;;;;;;;;;;16.50;99.90;;;;;;5013391;28;19913;-79
2022/05/27 08:28:10;;;;;;;;;;;16.50;99.90;;;;;;5013657;28;19914;-75
2022/05/27 08:30:38;;;;;;;;;;;16.50;99.90;;;;;;5013718;28;19909;-77
2022/05/27 08:33:04;;;;;;;;;;;16.50;99.90;;;;;;5013571;28;19925;-78
2022/05/27 08:38:18;;;;;;;;;;;16.40;99.90;;;;;;5013818;28;19916;-78
2022/05/27 08:40:45;;;;;;;;;;;16.40;99.90;;;;;;5013649;28;19914;-79
2022/05/27 08:43:18;;;;;;;;;;;16.30;99.90;;;;;;5013488;28;19909;-77
2022/05/27 08:46:08;;;;;;;;;;;16.30;99.90;;;;;;5013189;28;20548;-77
2022/05/27 08:48:38;;;;;;;;;;;16.30;99.90;;;;;;5013461;28;19947;-77
2022/05/27 08:51:25;;;;;;;;;;;16.30;99.90;;;;;;5011690;28;19930;-79
2022/05/27 08:53:55;;;;;;;;;;;16.40;99.90;;;;;;5013229;28;19960;-78
2022/05/27 08:59:27;;;;;;;;;;;16.40;99.90;;;;;;5013122;28;20350;-78
2022/05/27 09:02:16;;;;;;;;;;;16.40;99.90;;;;;;5012721;28;20419;-78
2022/05/27 09:04:49;;;;;;;;;;;16.40;99.90;;;;;;5007568;28;19909;-78
2022/05/27 09:07:22;;;;;;;;;;;16.40;99.90;;;;;;5014963;28;19913;-76
2022/05/27 09:09:49;;;;;;;;;;;16.40;99.90;;;;;;5012415;28;20383;-77
2022/05/27 09:12:19;;;;;;;;;;;16.40;99.90;;;;;;4993031;28;19910;-78
2022/05/27 09:14:47;;;;;;;;;;;16.40;99.90;;;;;;4992877;28;19989;-79
2022/05/27 09:17:24;;;;;;;;;;;16.40;99.90;;;;;;4993268;28;19922;-76
2022/05/27 09:20:03;;;;;;;;;;;16.30;99.90;;;;;;4992957;28;20349;-78
2022/05/27 09:22:29;;;;;;;;;;;16.30;99.90;;;;;;4993103;28;20343;-80
2022/05/27 09:24:59;;;;;;;;;;;16.30;99.90;;;;;;4992912;28;20499;-80
2022/05/27 09:27:34;;;;;;;;;;;16.40;99.90;;;;;;4993089;28;19917;-78
2022/05/27 09:30:06;;;;;;;;;;;16.40;99.90;;;;;;4993016;28;20323;-77
2022/05/27 09:32:46;;;;;;;;;;;16.40;99.90;;;;;;4992952;28;20013;-78
2022/05/27 09:35:19;;;;;;;;;;;16.40;99.90;;;;;;4992839;28;19914;-79
2022/05/27 09:37:47;;;;;;;;;;;16.40;99.90;;;;;;4992387;28;19952;-77
2022/05/27 09:40:16;;;;;;;;;;;16.30;99.90;;;;;;4992785;28;19945;-77
2022/05/27 09:43:03;;;;;;;;;;;16.40;99.90;;;;;;4992974;28;20340;-77
2022/05/27 09:45:30;;;;;;;;;;;16.40;99.90;;;;;;4992062;28;19918;-76
2022/05/27 09:48:00;;;;;;;;;;;16.30;99.90;;;;;;4992867;28;19952;-75
2022/05/27 09:50:32;;;;;;;;;;;16.30;99.90;;;;;;4992138;28;20324;-76
2022/05/27 09:53:00;;;;;;;;;;;16.30;99.90;;;;;;4992726;28;19918;-76
2022/05/27 09:55:46;;;;;;;;;;;16.30;99.90;;;;;;4992660;28;20040;-76
2022/05/27 09:58:13;;;;;;;;;;;16.20;99.90;;;;;;4992406;28;19910;-76
2022/05/27 10:00:45;;;;;;;;;;;16.20;99.90;;;;;;4992524;28;20380;-76
2022/05/27 10:03:21;;;;;;;;;;;16.20;99.90;;;;;;4992081;28;19964;-77
2022/05/27 10:05:56;;;;;;;;;;;16.10;99.90;;;;;;4992296;28;19933;-75
2022/05/27 10:08:28;;;;;;;;;;;16.10;99.90;;;;;;4992476;28;19917;-76
2022/05/27 10:11:14;;;;;;;;;;;16.10;99.90;;;;;;4992426;28;19920;-76
2022/05/27 10:13:41;;;;;;;;;;;16.10;99.90;;;;;;4992066;28;19979;-78
2022/05/27 10:16:11;;;;;;;;;;;16.10;99.90;;;;;;4991883;28;20375;-78
2022/05/27 10:18:39;;;;;;;;;;;16.00;99.90;;;;;;4992045;28;19910;-78
2022/05/27 10:21:11;;;;;;;;;;;16.10;99.90;;;;;;4991784;28;20361;-77
2022/05/27 10:23:39;;;;;;;;;;;16.10;99.90;;;;;;4991893;28;19910;-78
2022/05/27 10:26:18;;;;;;;;;;;16.00;99.90;;;;;;4991697;28;19964;-79
2022/05/27 10:28:44;;;;;;;;;;;16.00;99.90;;;;;;4992092;28;19910;-78
2022/05/27 10:31:16;;;;;;;;;;;16.00;99.90;;;;;;4991607;28;20415;-78
2022/05/27 10:33:47;;;;;;;;;;;16.00;99.90;;;;;;4991714;28;19921;-79
2022/05/27 10:36:31;;;;;;;;;;;16.00;99.90;;;;;;4991947;28;19918;-78
2022/05/27 10:39:06;;;;;;;;;;;16.00;99.90;;;;;;4992052;28;19920;-78
2022/05/27 10:41:43;;;;;;;;;;;16.00;99.90;;;;;;4991204;28;19909;-79
2022/05/27 10:44:28;;;;;;;;;;;16.00;99.90;;;;;;4991585;28;20093;-76
2022/05/27 10:46:55;;;;;;;;;;;16.00;99.90;;;;;;5023418;28;19921;-79
2022/05/27 10:49:40;;;;;;;;;;;16.00;99.90;;;;;;4991922;28;19976;-79
2022/05/27 10:52:25;;;;;;;;;;;16.00;99.90;;;;;;4991788;28;19926;-79
2022/05/27 10:55:00;;;;;;;;;;;16.00;99.90;;;;;;4991289;28;19929;-79
2022/05/27 11:03:25;;;;;;;;;;;16.00;99.90;;;;;;4991816;28;19973;-78
2022/05/27 11:06:10;;;;;;;;;;;15.90;99.90;;;;;;4991533;28;20032;-77
2022/05/27 11:08:44;;;;;;;;;;;15.90;99.90;;;;;;4991142;28;20005;-79
2022/05/27 11:11:20;;;;;;;;;;;15.90;99.90;;;;;;4991203;28;19914;-79
2022/05/27 11:16:35;;;;;;;;;;;16.00;99.90;;;;;;4991625;28;19976;-79
2022/05/27 11:19:10;;;;;;;;;;;15.90;99.90;;;;;;4991701;28;20372;-79
2022/05/27 11:21:37;;;;;;;;;;;16.00;99.90;;;;;;4990916;28;19922;-77
2022/05/27 11:24:09;;;;;;;;;;;15.90;99.90;;;;;;4991831;28;20001;-78
2022/05/27 11:26:48;;;;;;;;;;;15.90;99.90;;;;;;4991133;28;19917;-79
2022/05/27 11:29:18;;;;;;;;;;;15.90;99.90;;;;;;4991541;28;20022;-79
2022/05/27 11:31:44;;;;;;;;;;;15.90;99.90;;;;;;4991506;28;20321;-79
2022/05/27 11:34:22;;;;;;;;;;;15.90;99.90;;;;;;5025696;28;20343;-78
2022/05/27 11:36:57;;;;;;;;;;;15.90;99.90;;;;;;4995022;28;19957;-79
2022/05/27 11:39:36;;;;;;;;;;;15.80;99.90;;;;;;4994634;28;19909;-79
2022/05/27 11:42:21;;;;;;;;;;;15.80;99.90;;;;;;4995192;28;19910;-78
2022/05/27 11:44:53;;;;;;;;;;;15.80;99.90;;;;;;4995223;28;20000;-77
2022/05/27 11:47:23;;;;;;;;;;;15.80;99.90;;;;;;4995184;28;20487;-79
2022/05/27 11:50:04;;;;;;;;;;;15.80;99.90;;;;;;4994580;28;19921;-78
2022/05/27 11:52:33;;;;;;;;;;;15.80;99.90;;;;;;4994974;28;19922;-79
2022/05/27 11:55:09;;;;;;;;;;;15.80;99.90;;;;;;4994641;28;20007;-79
2022/05/27 11:57:54;;;;;;;;;;;15.80;99.90;;;;;;4994821;28;19917;-79
2022/05/27 12:00:22;;;;;;;;;;;15.70;99.90;;;;;;4994886;28;19913;-79
2022/05/27 12:02:52;;;;;;;;;;;15.70;99.90;;;;;;4994224;28;20062;-77
2022/05/27 12:05:22;;;;;;;;;;;15.70;99.90;;;;;;4994753;28;19913;-79
2022/05/27 12:08:03;;;;;;;;;;;15.80;99.90;;;;;;4994678;28;19997;-78
2022/05/27 12:10:43;;;;;;;;;;;15.70;99.90;;;;;;4994888;28;20012;-80
2022/05/27 12:13:25;;;;;;;;;;;15.70;99.90;;;;;;5013766;28;19952;-80
2022/05/27 12:16:03;;;;;;;;;;;15.70;99.90;;;;;;5013865;28;19945;-80
2022/05/27 12:18:38;;;;;;;;;;;15.70;99.90;;;;;;5013604;28;19921;-80
2022/05/27 12:21:07;;;;;;;;;;;15.70;99.90;;;;;;5013887;28;19971;-80
2022/05/27 12:23:35;;;;;;;;;;;15.70;99.90;;;;;;5013694;28;19952;-78
2022/05/27 12:26:02;;;;;;;;;;;15.60;99.90;;;;;;5013926;28;20276;-80
2022/05/27 12:28:34;;;;;;;;;;;15.60;99.90;;;;;;5012193;28;19936;-79
2022/05/27 12:31:01;;;;;;;;;;;15.50;99.90;;;;;;5013964;28;19913;-80
2022/05/27 12:33:29;;;;;;;;;;;15.50;99.90;;;;;;5013233;28;19913;-80
2022/05/27 12:36:00;;;;;;;;;;;15.50;99.90;;;;;;5013417;28;20265;-77
2022/05/27 12:38:28;;;;;;;;;;;15.50;99.90;;;;;;5013387;28;19909;-75
2022/05/27 12:41:03;;;;;;;;;;;15.50;99.90;;;;;;5013377;28;20288;-75
2022/05/27 12:43:31;;;;;;;;;;;15.50;99.90;;;;;;5013573;28;19913;-75
2022/05/27 12:46:01;;;;;;;;;;;15.50;99.90;;;;;;5013363;28;19909;-77
2022/05/27 12:48:31;;;;;;;;;;;15.50;99.90;;;;;;5013434;28;19960;-76
2022/05/27 12:50:59;;;;;;;;;;;15.50;99.90;;;;;;5013138;28;19925;-78
2022/05/27 12:53:40;;;;;;;;;;;15.50;99.90;;;;;;5044768;28;20358;-78
2022/05/27 13:02:20;;;;;;;;;;;15.60;99.90;;;;;;5013382;28;19916;-75
2022/05/27 13:04:54;;;;;;;;;;;15.60;99.90;;;;;;5013253;28;19916;-76
2022/05/27 13:07:43;;;;;;;;;;;15.50;99.90;;;;;;5012958;28;19916;-79
2022/05/27 13:10:16;;;;;;;;;;;15.40;99.90;;;;;;5013281;28;19925;-79
2022/05/27 13:12:44;;;;;;;;;;;15.40;99.90;;;;;;5012980;28;19913;-76
2022/05/27 13:15:14;;;;;;;;;;;15.30;99.90;;;;;;5044635;28;19909;-78
2022/05/27 13:17:45;;;;;;;;;;;15.30;99.90;;;;;;5012718;28;19917;-75
2022/05/27 13:20:17;;;;;;;;;;;15.30;99.90;;;;;;5012538;28;19910;-77
2022/05/27 13:22:53;;;;;;;;;;;15.20;99.90;;;;;;5012842;28;20016;-73
2022/05/27 13:25:25;;;;;;;;;;;15.20;99.90;;;;;;5012836;28;19914;-74
2022/05/27 13:27:56;;;;;;;;;;;15.30;99.90;;;;;;5012604;28;20592;-77
2022/05/27 13:30:24;;;;;;;;;;;15.30;99.90;;;;;;5012698;28;19914;-77
2022/05/27 13:33:01;;;;;;;;;;;15.30;99.90;;;;;;5044107;28;20265;-75
2022/05/27 13:35:42;;;;;;;;;;;15.30;99.90;;;;;;5012434;28;19987;-77
2022/05/27 13:38:14;;;;;;;;;;;15.30;99.90;;;;;;5012662;28;19925;-77
2022/05/27 13:40:41;;;;;;;;;;;15.30;99.90;;;;;;5012593;28;20000;-79
2022/05/27 13:43:09;;;;;;;;;;;15.30;99.90;;;;;;5012634;28;19918;-77
2022/05/27 13:45:43;;;;;;;;;;;15.40;99.90;;;;;;5012057;28;19916;-79
2022/05/27 13:48:14;;;;;;;;;;;15.40;99.90;;;;;;5012444;28;19925;-77
2022/05/27 13:50:42;;;;;;;;;;;15.40;99.90;;;;;;5012118;28;19913;-78
2022/05/27 13:53:16;;;;;;;;;;;15.40;99.90;;;;;;5012488;28;19922;-78
2022/05/27 13:55:42;;;;;;;;;;;15.30;99.90;;;;;;5011474;28;19913;-75
2022/05/27 13:58:10;;;;;;;;;;;15.30;99.90;;;;;;5012086;28;20268;-78
2022/05/27 14:00:39;;;;;;;;;;;15.30;99.90;;;;;;5012195;28;19918;-77
2022/05/27 14:03:07;;;;;;;;;;;15.30;99.90;;;;;;5012242;28;19917;-76
2022/05/27 14:05:35;;;;;;;;;;;15.20;99.90;;;;;;5011763;28;19909;-74
2022/05/27 14:08:02;;;;;;;;;;;15.30;99.90;;;;;;5012223;28;19917;-74
2022/05/27 14:10:32;;;;;;;;;;;15.30;99.90;;;;;;5012054;28;19944;-77
2022/05/27 14:13:00;;;;;;;;;;;15.40;99.90;;;;;;5011815;28;19921;-76
2022/05/27 14:15:31;;;;;;;;;;;15.40;99.90;;;;;;5011856;28;19928;-75
2022/05/27 14:17:59;;;;;;;;;;;15.50;99.90;;;;;;5011950;28;20395;-76
2022/05/27 14:22:39;;;;;;;;;;;15.50;99.90;;;;;;5043516;28;19910;-78
2022/05/27 14:23:20;;;;;;;;;;;15.50;99.90;;;;;;5011904;28;20326;-74
2022/05/27 14:25:48;;;;;;;;;;;15.50;99.90;;;;;;5011296;28;19913;-74
2022/05/27 14:28:21;;;;;;;;;;;15.50;99.90;;;;;;5011888;28;19913;-77
2022/05/27 14:30:51;;;;;;;;;;;15.50;99.90;;;;;;5011940;28;19913;-75
2022/05/27 14:33:24;;;;;;;;;;;15.50;99.90;;;;;;5011846;28;19931;-76
2022/05/27 14:35:51;;;;;;;;;;;15.50;99.90;;;;;;5011472;28;20020;-75
2022/05/27 14:38:21;;;;;;;;;;;15.50;99.90;;;;;;5010103;28;19909;-75
2022/05/27 14:40:50;;;;;;;;;;;15.50;99.90;;;;;;5011576;28;19910;-77
2022/05/27 14:43:24;;;;;;;;;;;15.50;99.90;;;;;;5011686;28;19913;-75
2022/05/27 14:45:55;;;;;;;;;;;15.60;99.90;;;;;;5011475;28;20055;-74
2022/05/27 14:48:30;;;;;;;;;;;15.60;99.90;;;;;;5012663;28;19910;-76
2022/05/27 14:51:11;;;;;;;;;;;15.60;99.90;;;;;;5013550;28;19920;-74
2022/05/27 14:53:37;;;;;;;;;;;15.60;99.90;;;;;;5013451;28;19920;-76
2022/05/27 14:56:04;;;;;;;;;;;15.60;99.90;;;;;;5012416;28;19921;-74
2022/05/27 14:58:34;;;;;;;;;;;15.60;99.90;;;;;;5013541;28;19932;-75
2022/05/27 15:01:01;;;;;;;;;;;15.50;99.90;;;;;;5013492;28;20317;-74
2022/05/27 15:03:28;;;;;;;;;;;15.50;99.90;;;;;;5013330;28;20264;-75
2022/05/27 15:05:55;;;;;;;;;;;15.40;99.90;;;;;;5013210;28;19910;-75
2022/05/27 15:08:25;;;;;;;;;;;15.40;99.90;;;;;;5016185;28;20008;-76